sensor_id;sensor_type;location;lat;lon;timestamp;temperature;humidity
19862;DHT22;10093;48.148;8.542;2022-12-29T00:02:15;5.40;99.90
19862;DHT22;10093;48.148;8.542;2022-12-29T00:04:40;5.40;99.90
19862;DHT22;10093;48.148;8.542;2022-12-29T00:07:06;5.30;99.90
19862;DHT22;10093;48.148;8.542;2022-12-29T00:09:33;5.20;99.90
19862;DHT22;10093;48.148;8.542;2022-12-29T00:11:59;5.20;99.90
19862;DHT22;10093;48.148;8.542;2022-12-29T00:14:26;5.20;99.90
19862;DHT22;10093;48.148;8.542;2022-12-29T00:17:11;5.20;99.90
19862;DHT22;10093;48.148;8.542;2022-12-29T00:19:37;5.20;99.90
19862;DHT22;10093;48.148;8.542;2022-12-29T00:22:21;5.20;99.90
19862;DHT22;10093;48.148;8.542;2022-12-29T00:25:07;5.20;99.90
19862;DHT22;10093;48.148;8.542;2022-12-29T00:27:52;5.20;99.90
19862;DHT22;10093;48.148;8.542;2022-12-29T00:30:36;5.30;99.90
19862;DHT22;10093;48.148;8.542;2022-12-29T00:33:22;5.40;99.90
19862;DHT22;10093;48.148;8.542;2022-12-29T00:36:16;5.40;99.90
19862;DHT22;10093;48.148;8.542;2022-12-29T00:38:48;5.50;99.90
19862;DHT22;10093;48.148;8.542;2022-12-29T00:41:32;5.30;99.90
19862;DHT22;10093;48.148;8.542;2022-12-29T00:44:17;5.40;99.90
19862;DHT22;10093;48.148;8.542;2022-12-29T00:46:43;5.30;99.90
19862;DHT22;10093;48.148;8.542;2022-12-29T00:49:10;5.40;99.90
19862;DHT22;10093;48.148;8.542;2022-12-29T00:51:56;5.40;99.90
19862;DHT22;10093;48.148;8.542;2022-12-29T00:54:22;5.40;99.90
19862;DHT22;10093;48.148;8.542;2022-12-29T00:56:49;5.40;99.90
19862;DHT22;10093;48.148;8.542;2022-12-29T00:59:16;5.40;99.90
19862;DHT22;10093;48.148;8.542;2022-12-29T01:01:42;5.40;99.90
19862;DHT22;10093;48.148;8.542;2022-12-29T01:04:09;5.40;99.90
19862;DHT22;10093;48.148;8.542;2022-12-29T01:06:36;5.50;99.90
19862;DHT22;10093;48.148;8.542;2022-12-29T01:09:03;5.40;99.90
19862;DHT22;10093;48.148;8.542;2022-12-29T01:11:47;5.50;99.90
19862;DHT22;10093;48.148;8.542;2022-12-29T01:14:14;5.50;99.90
19862;DHT22;10093;48.148;8.542;2022-12-29T01:16:39;5.50;99.90
19862;DHT22;10093;48.148;8.542;2022-12-29T01:19:05;5.50;99.90
19862;DHT22;10093;48.148;8.542;2022-12-29T01:21:31;5.50;99.90
19862;DHT22;10093;48.148;8.542;2022-12-29T01:23:56;5.60;99.90
19862;DHT22;10093;48.148;8.542;2022-12-29T01:26:22;5.60;99.90
19862;DHT22;10093;48.148;8.542;2022-12-29T01:28:47;5.60;99.90
19862;DHT22;10093;48.148;8.542;2022-12-29T01:31:14;5.70;99.90
19862;DHT22;10093;48.148;8.542;2022-12-29T01:33:41;5.80;99.90
19862;DHT22;10093;48.148;8.542;2022-12-29T01:36:09;5.80;99.90
19862;DHT22;10093;48.148;8.542;2022-12-29T01:38:36;5.80;99.90
19862;DHT22;10093;48.148;8.542;2022-12-29T01:41:03;5.90;99.90
19862;DHT22;10093;48.148;8.542;2022-12-29T01:43:59;5.90;99.90
19862;DHT22;10093;48.148;8.542;2022-12-29T01:46:41;5.90;99.90
19862;DHT22;10093;48.148;8.542;2022-12-29T01:51:54;6.10;99.90
19862;DHT22;10093;48.148;8.542;2022-12-29T01:54:30;6.10;99.90
19862;DHT22;10093;48.148;8.542;2022-12-29T01:57:00;6.20;99.90
19862;DHT22;10093;48.148;8.542;2022-12-29T01:59:31;6.20;99.90
19862;DHT22;10093;48.148;8.542;2022-12-29T02:01:58;6.30;99.90
19862;DHT22;10093;48.148;8.542;2022-12-29T02:04:26;6.20;99.90
19862;DHT22;10093;48.148;8.542;2022-12-29T02:07:05;6.20;99.90
19862;DHT22;10093;48.148;8.542;2022-12-29T02:09:33;6.10;99.90
19862;DHT22;10093;48.148;8.542;2022-12-29T02:11:59;6.10;99.90
19862;DHT22;10093;48.148;8.542;2022-12-29T02:14:25;6.00;99.90
19862;DHT22;10093;48.148;8.542;2022-12-29T02:17:16;6.20;99.90
19862;DHT22;10093;48.148;8.542;2022-12-29T02:30:52;6.10;99.90
19862;DHT22;10093;48.148;8.542;2022-12-29T02:42:40;6.20;99.90
19862;DHT22;10093;48.148;8.542;2022-12-29T02:48:21;6.40;99.90
19862;DHT22;10093;48.148;8.542;2022-12-29T02:51:02;6.20;99.90
19862;DHT22;10093;48.148;8.542;2022-12-29T02:53:29;6.10;99.90
19862;DHT22;10093;48.148;8.542;2022-12-29T02:56:14;6.00;99.90
19862;DHT22;10093;48.148;8.542;2022-12-29T02:58:40;5.80;99.90
19862;DHT22;10093;48.148;8.542;2022-12-29T03:01:23;5.70;99.90
19862;DHT22;10093;48.148;8.542;2022-12-29T03:09:58;5.60;99.90
19862;DHT22;10093;48.148;8.542;2022-12-29T03:12:30;5.40;99.90
19862;DHT22;10093;48.148;8.542;2022-12-29T03:15:55;5.40;99.90
19862;DHT22;10093;48.148;8.542;2022-12-29T03:24:17;5.40;99.90
19862;DHT22;10093;48.148;8.542;2022-12-29T03:26:45;5.40;99.90
19862;DHT22;10093;48.148;8.542;2022-12-29T03:29:14;5.40;99.90
19862;DHT22;10093;48.148;8.542;2022-12-29T03:31:40;5.30;99.90
19862;DHT22;10093;48.148;8.542;2022-12-29T03:34:08;5.40;99.90
19862;DHT22;10093;48.148;8.542;2022-12-29T03:36:44;5.30;99.90
19862;DHT22;10093;48.148;8.542;2022-12-29T03:39:13;5.70;99.90
19862;DHT22;10093;48.148;8.542;2022-12-29T03:41:41;6.00;99.90
19862;DHT22;10093;48.148;8.542;2022-12-29T03:44:10;6.00;99.90
19862;DHT22;10093;48.148;8.542;2022-12-29T03:46:36;6.10;99.90
19862;DHT22;10093;48.148;8.542;2022-12-29T03:49:01;6.30;99.90
19862;DHT22;10093;48.148;8.542;2022-12-29T03:51:27;6.20;99.90
19862;DHT22;10093;48.148;8.542;2022-12-29T03:53:52;5.90;99.90
19862;DHT22;10093;48.148;8.542;2022-12-29T03:56:18;5.80;99.90
19862;DHT22;10093;48.148;8.542;2022-12-29T03:58:44;5.80;99.90
19862;DHT22;10093;48.148;8.542;2022-12-29T04:01:09;5.80;99.90
19862;DHT22;10093;48.148;8.542;2022-12-29T04:03:35;5.90;99.90
19862;DHT22;10093;48.148;8.542;2022-12-29T04:06:00;5.80;99.90
19862;DHT22;10093;48.148;8.542;2022-12-29T04:08:26;5.80;99.90
19862;DHT22;10093;48.148;8.542;2022-12-29T04:10:51;5.80;99.90
19862;DHT22;10093;48.148;8.542;2022-12-29T04:13:17;5.90;99.90
19862;DHT22;10093;48.148;8.542;2022-12-29T04:15:43;5.90;99.90
19862;DHT22;10093;48.148;8.542;2022-12-29T04:18:10;6.00;99.90
19862;DHT22;10093;48.148;8.542;2022-12-29T04:20:36;6.00;99.90
19862;DHT22;10093;48.148;8.542;2022-12-29T04:23:20;6.00;99.90
19862;DHT22;10093;48.148;8.542;2022-12-29T04:25:46;6.00;99.90
19862;DHT22;10093;48.148;8.542;2022-12-29T04:28:16;6.00;99.90
19862;DHT22;10093;48.148;8.542;2022-12-29T04:30:43;5.90;99.90
19862;DHT22;10093;48.148;8.542;2022-12-29T04:33:09;6.00;99.90
19862;DHT22;10093;48.148;8.542;2022-12-29T04:35:35;6.10;99.90
19862;DHT22;10093;48.148;8.542;2022-12-29T04:38:01;6.10;99.90
19862;DHT22;10093;48.148;8.542;2022-12-29T04:40:26;6.10;99.90
19862;DHT22;10093;48.148;8.542;2022-12-29T04:42:52;6.20;99.90
19862;DHT22;10093;48.148;8.542;2022-12-29T04:45:18;6.20;99.90
19862;DHT22;10093;48.148;8.542;2022-12-29T04:47:43;6.30;99.90
19862;DHT22;10093;48.148;8.542;2022-12-29T04:50:09;6.40;99.90
19862;DHT22;10093;48.148;8.542;2022-12-29T04:52:35;6.50;99.90
19862;DHT22;10093;48.148;8.542;2022-12-29T04:55:01;6.70;99.90
19862;DHT22;10093;48.148;8.542;2022-12-29T04:57:26;6.70;99.90
19862;DHT22;10093;48.148;8.542;2022-12-29T04:59:52;6.80;99.90
19862;DHT22;10093;48.148;8.542;2022-12-29T05:02:18;6.80;99.90
19862;DHT22;10093;48.148;8.542;2022-12-29T05:04:44;6.70;99.90
19862;DHT22;10093;48.148;8.542;2022-12-29T05:07:09;6.70;99.90
19862;DHT22;10093;48.148;8.542;2022-12-29T05:09:35;6.70;99.90
19862;DHT22;10093;48.148;8.542;2022-12-29T05:12:01;6.70;99.90
19862;DHT22;10093;48.148;8.542;2022-12-29T05:14:26;6.70;99.90
19862;DHT22;10093;48.148;8.542;2022-12-29T05:16:52;6.60;99.90
19862;DHT22;10093;48.148;8.542;2022-12-29T05:19:18;6.50;99.90
19862;DHT22;10093;48.148;8.542;2022-12-29T05:21:43;6.60;99.90
19862;DHT22;10093;48.148;8.542;2022-12-29T05:24:09;6.60;99.90
19862;DHT22;10093;48.148;8.542;2022-12-29T05:26:35;6.60;99.90
19862;DHT22;10093;48.148;8.542;2022-12-29T05:29:00;6.50;99.90
19862;DHT22;10093;48.148;8.542;2022-12-29T05:31:26;6.60;99.90
19862;DHT22;10093;48.148;8.542;2022-12-29T05:33:52;6.60;99.90
19862;DHT22;10093;48.148;8.542;2022-12-29T05:36:18;6.70;99.90
19862;DHT22;10093;48.148;8.542;2022-12-29T05:38:43;6.80;99.90
19862;DHT22;10093;48.148;8.542;2022-12-29T05:41:09;6.80;99.90
19862;DHT22;10093;48.148;8.542;2022-12-29T05:43:34;6.80;99.90
19862;DHT22;10093;48.148;8.542;2022-12-29T05:46:00;6.80;99.90
19862;DHT22;10093;48.148;8.542;2022-12-29T05:48:26;6.80;99.90
19862;DHT22;10093;48.148;8.542;2022-12-29T05:50:51;6.80;99.90
19862;DHT22;10093;48.148;8.542;2022-12-29T05:53:17;6.80;99.90
19862;DHT22;10093;48.148;8.542;2022-12-29T05:55:44;6.80;99.90
19862;DHT22;10093;48.148;8.542;2022-12-29T05:58:11;6.80;99.90
19862;DHT22;10093;48.148;8.542;2022-12-29T06:00:36;6.80;99.90
19862;DHT22;10093;48.148;8.542;2022-12-29T06:03:02;6.70;99.90
19862;DHT22;10093;48.148;8.542;2022-12-29T06:05:28;6.80;99.90
19862;DHT22;10093;48.148;8.542;2022-12-29T06:07:53;6.70;99.90
19862;DHT22;10093;48.148;8.542;2022-12-29T06:10:19;6.80;99.90
19862;DHT22;10093;48.148;8.542;2022-12-29T06:12:44;6.80;99.90
19862;DHT22;10093;48.148;8.542;2022-12-29T06:15:10;6.80;99.90
19862;DHT22;10093;48.148;8.542;2022-12-29T06:17:36;6.90;99.90
19862;DHT22;10093;48.148;8.542;2022-12-29T06:20:02;6.90;99.90
19862;DHT22;10093;48.148;8.542;2022-12-29T06:22:28;6.90;99.90
19862;DHT22;10093;48.148;8.542;2022-12-29T06:24:53;6.90;99.90
19862;DHT22;10093;48.148;8.542;2022-12-29T06:27:19;7.00;99.90
19862;DHT22;10093;48.148;8.542;2022-12-29T06:29:45;7.00;99.90
19862;DHT22;10093;48.148;8.542;2022-12-29T06:32:11;7.10;99.90
19862;DHT22;10093;48.148;8.542;2022-12-29T06:34:37;7.00;99.90
19862;DHT22;10093;48.148;8.542;2022-12-29T06:37:02;7.10;99.90
19862;DHT22;10093;48.148;8.542;2022-12-29T06:39:28;7.30;99.90
19862;DHT22;10093;48.148;8.542;2022-12-29T06:41:54;7.50;99.90
19862;DHT22;10093;48.148;8.542;2022-12-29T06:44:20;7.60;99.90
19862;DHT22;10093;48.148;8.542;2022-12-29T06:46:47;7.60;99.90
19862;DHT22;10093;48.148;8.542;2022-12-29T06:49:12;7.80;99.90
19862;DHT22;10093;48.148;8.542;2022-12-29T06:51:38;8.20;99.90
19862;DHT22;10093;48.148;8.542;2022-12-29T06:54:04;8.20;99.90
19862;DHT22;10093;48.148;8.542;2022-12-29T06:56:29;8.30;99.90
19862;DHT22;10093;48.148;8.542;2022-12-29T06:58:55;8.50;99.90
19862;DHT22;10093;48.148;8.542;2022-12-29T07:01:20;8.50;99.90
19862;DHT22;10093;48.148;8.542;2022-12-29T07:03:46;8.30;99.90
19862;DHT22;10093;48.148;8.542;2022-12-29T07:06:14;8.00;99.90
19862;DHT22;10093;48.148;8.542;2022-12-29T07:08:40;8.10;99.90
19862;DHT22;10093;48.148;8.542;2022-12-29T07:11:06;8.00;99.90
19862;DHT22;10093;48.148;8.542;2022-12-29T07:13:31;8.00;99.90
19862;DHT22;10093;48.148;8.542;2022-12-29T07:15:57;7.80;99.90
19862;DHT22;10093;48.148;8.542;2022-12-29T07:18:22;7.30;99.90
19862;DHT22;10093;48.148;8.542;2022-12-29T07:20:48;7.20;99.90
19862;DHT22;10093;48.148;8.542;2022-12-29T07:23:14;7.20;99.90
19862;DHT22;10093;48.148;8.542;2022-12-29T07:25:39;7.50;99.90
19862;DHT22;10093;48.148;8.542;2022-12-29T07:28:07;7.50;99.90
19862;DHT22;10093;48.148;8.542;2022-12-29T07:30:33;7.40;99.90
19862;DHT22;10093;48.148;8.542;2022-12-29T07:32:58;7.40;99.90
19862;DHT22;10093;48.148;8.542;2022-12-29T07:35:24;7.40;99.90
19862;DHT22;10093;48.148;8.542;2022-12-29T07:37:49;7.30;99.90
19862;DHT22;10093;48.148;8.542;2022-12-29T07:40:15;7.30;99.90
19862;DHT22;10093;48.148;8.542;2022-12-29T07:42:41;7.40;99.90
19862;DHT22;10093;48.148;8.542;2022-12-29T07:45:07;7.30;99.90
19862;DHT22;10093;48.148;8.542;2022-12-29T07:47:34;7.30;99.90
19862;DHT22;10093;48.148;8.542;2022-12-29T07:50:00;7.40;99.90
19862;DHT22;10093;48.148;8.542;2022-12-29T07:52:25;7.50;99.90
19862;DHT22;10093;48.148;8.542;2022-12-29T07:54:51;7.70;99.90
19862;DHT22;10093;48.148;8.542;2022-12-29T07:57:16;7.80;99.90
19862;DHT22;10093;48.148;8.542;2022-12-29T07:59:42;8.00;99.90
19862;DHT22;10093;48.148;8.542;2022-12-29T08:02:10;8.20;99.90
19862;DHT22;10093;48.148;8.542;2022-12-29T08:04:36;8.30;99.90
19862;DHT22;10093;48.148;8.542;2022-12-29T08:07:02;8.30;99.90
19862;DHT22;10093;48.148;8.542;2022-12-29T08:09:28;8.30;99.90
19862;DHT22;10093;48.148;8.542;2022-12-29T08:11:54;8.30;99.90
19862;DHT22;10093;48.148;8.542;2022-12-29T08:14:19;8.30;99.90
19862;DHT22;10093;48.148;8.542;2022-12-29T08:16:45;8.30;99.90
19862;DHT22;10093;48.148;8.542;2022-12-29T08:19:12;8.30;99.90
19862;DHT22;10093;48.148;8.542;2022-12-29T08:21:38;8.30;99.90
19862;DHT22;10093;48.148;8.542;2022-12-29T08:24:04;8.30;99.90
19862;DHT22;10093;48.148;8.542;2022-12-29T08:26:29;8.10;99.90
19862;DHT22;10093;48.148;8.542;2022-12-29T08:28:55;8.00;99.90
19862;DHT22;10093;48.148;8.542;2022-12-29T08:31:22;8.00;99.90
19862;DHT22;10093;48.148;8.542;2022-12-29T08:33:48;7.90;99.90
19862;DHT22;10093;48.148;8.542;2022-12-29T08:36:14;7.90;99.90
19862;DHT22;10093;48.148;8.542;2022-12-29T08:38:39;7.80;99.90
19862;DHT22;10093;48.148;8.542;2022-12-29T08:41:05;7.70;99.90
19862;DHT22;10093;48.148;8.542;2022-12-29T08:43:30;7.60;99.90
19862;DHT22;10093;48.148;8.542;2022-12-29T08:45:57;7.50;99.90
19862;DHT22;10093;48.148;8.542;2022-12-29T08:48:23;7.50;99.90
19862;DHT22;10093;48.148;8.542;2022-12-29T08:50:50;7.50;99.90
19862;DHT22;10093;48.148;8.542;2022-12-29T08:53:16;7.40;99.90
19862;DHT22;10093;48.148;8.542;2022-12-29T08:55:45;7.40;99.90
19862;DHT22;10093;48.148;8.542;2022-12-29T09:00:43;7.60;99.90
19862;DHT22;10093;48.148;8.542;2022-12-29T09:03:09;7.70;99.90
19862;DHT22;10093;48.148;8.542;2022-12-29T09:05:34;7.60;99.90
19862;DHT22;10093;48.148;8.542;2022-12-29T09:08:00;7.60;99.90
19862;DHT22;10093;48.148;8.542;2022-12-29T09:10:25;7.60;99.90
19862;DHT22;10093;48.148;8.542;2022-12-29T09:12:51;7.60;99.90
19862;DHT22;10093;48.148;8.542;2022-12-29T09:15:17;7.70;99.90
19862;DHT22;10093;48.148;8.542;2022-12-29T09:17:42;7.70;99.90
19862;DHT22;10093;48.148;8.542;2022-12-29T09:20:16;7.70;99.90
19862;DHT22;10093;48.148;8.542;2022-12-29T09:22:42;7.70;99.90
19862;DHT22;10093;48.148;8.542;2022-12-29T09:25:08;7.90;99.90
19862;DHT22;10093;48.148;8.542;2022-12-29T09:27:34;7.90;99.90
19862;DHT22;10093;48.148;8.542;2022-12-29T09:30:00;8.10;99.90
19862;DHT22;10093;48.148;8.542;2022-12-29T09:32:26;8.20;99.90
19862;DHT22;10093;48.148;8.542;2022-12-29T09:34:52;8.50;99.90
19862;DHT22;10093;48.148;8.542;2022-12-29T09:37:17;8.60;99.90
19862;DHT22;10093;48.148;8.542;2022-12-29T09:39:43;8.80;99.90
19862;DHT22;10093;48.148;8.542;2022-12-29T09:42:35;9.00;99.90
19862;DHT22;10093;48.148;8.542;2022-12-29T09:45:15;9.00;99.90
19862;DHT22;10093;48.148;8.542;2022-12-29T09:47:43;9.10;99.90
19862;DHT22;10093;48.148;8.542;2022-12-29T09:55:49;9.30;99.90
19862;DHT22;10093;48.148;8.542;2022-12-29T10:01:04;9.40;99.90
19862;DHT22;10093;48.148;8.542;2022-12-29T10:03:48;9.50;99.90
19862;DHT22;10093;48.148;8.542;2022-12-29T10:09:19;9.40;99.90
19862;DHT22;10093;48.148;8.542;2022-12-29T10:25:19;9.20;99.90
19862;DHT22;10093;48.148;8.542;2022-12-29T10:27:50;9.10;99.90
19862;DHT22;10093;48.148;8.542;2022-12-29T10:30:17;9.00;99.90
19862;DHT22;10093;48.148;8.542;2022-12-29T10:32:52;8.90;99.90
19862;DHT22;10093;48.148;8.542;2022-12-29T10:35:22;8.90;99.90
19862;DHT22;10093;48.148;8.542;2022-12-29T10:38:00;8.90;99.90
19862;DHT22;10093;48.148;8.542;2022-12-29T10:43:28;9.00;99.90
19862;DHT22;10093;48.148;8.542;2022-12-29T10:45:59;9.10;99.90
19862;DHT22;10093;48.148;8.542;2022-12-29T10:48:36;9.10;99.90
19862;DHT22;10093;48.148;8.542;2022-12-29T10:51:05;9.10;99.90
19862;DHT22;10093;48.148;8.542;2022-12-29T10:53:45;9.10;99.90
19862;DHT22;10093;48.148;8.542;2022-12-29T10:56:27;9.10;99.90
19862;DHT22;10093;48.148;8.542;2022-12-29T10:58:55;9.10;99.90
19862;DHT22;10093;48.148;8.542;2022-12-29T11:01:24;9.00;99.90
19862;DHT22;10093;48.148;8.542;2022-12-29T11:06:29;9.00;99.90
19862;DHT22;10093;48.148;8.542;2022-12-29T11:09:02;8.90;99.90
19862;DHT22;10093;48.148;8.542;2022-12-29T11:11:35;9.10;99.90
19862;DHT22;10093;48.148;8.542;2022-12-29T11:14:26;9.10;99.90
19862;DHT22;10093;48.148;8.542;2022-12-29T11:17:03;9.30;99.90
19862;DHT22;10093;48.148;8.542;2022-12-29T11:19:31;9.30;99.90
19862;DHT22;10093;48.148;8.542;2022-12-29T11:22:26;9.30;99.90
19862;DHT22;10093;48.148;8.542;2022-12-29T11:24:53;9.30;99.90
19862;DHT22;10093;48.148;8.542;2022-12-29T11:27:24;9.30;99.90
19862;DHT22;10093;48.148;8.542;2022-12-29T11:29:51;9.30;99.90
19862;DHT22;10093;48.148;8.542;2022-12-29T11:32:23;9.30;99.90
19862;DHT22;10093;48.148;8.542;2022-12-29T11:34:50;9.30;99.90
19862;DHT22;10093;48.148;8.542;2022-12-29T11:37:19;9.30;99.90
19862;DHT22;10093;48.148;8.542;2022-12-29T11:42:19;9.60;99.90
19862;DHT22;10093;48.148;8.542;2022-12-29T11:44:49;10.00;99.90
19862;DHT22;10093;48.148;8.542;2022-12-29T11:47:31;10.10;99.90
19862;DHT22;10093;48.148;8.542;2022-12-29T11:50:03;10.20;99.90
19862;DHT22;10093;48.148;8.542;2022-12-29T11:52:32;10.50;99.90
19862;DHT22;10093;48.148;8.542;2022-12-29T11:55:03;10.50;99.90
19862;DHT22;10093;48.148;8.542;2022-12-29T11:57:32;10.50;99.90
19862;DHT22;10093;48.148;8.542;2022-12-29T12:00:01;10.50;99.90
19862;DHT22;10093;48.148;8.542;2022-12-29T12:05:12;10.70;99.90
19862;DHT22;10093;48.148;8.542;2022-12-29T12:08:02;10.60;99.90
19862;DHT22;10093;48.148;8.542;2022-12-29T12:10:33;10.40;99.90
19862;DHT22;10093;48.148;8.542;2022-12-29T12:13:26;10.30;99.90
19862;DHT22;10093;48.148;8.542;2022-12-29T12:16:02;10.20;99.90
19862;DHT22;10093;48.148;8.542;2022-12-29T12:18:42;10.10;99.90
19862;DHT22;10093;48.148;8.542;2022-12-29T12:21:24;10.10;99.90
19862;DHT22;10093;48.148;8.542;2022-12-29T12:26:58;10.30;99.90
19862;DHT22;10093;48.148;8.542;2022-12-29T12:30:02;10.40;99.90
19862;DHT22;10093;48.148;8.542;2022-12-29T12:35:14;10.40;99.90
19862;DHT22;10093;48.148;8.542;2022-12-29T12:37:58;10.30;99.90
19862;DHT22;10093;48.148;8.542;2022-12-29T12:43:39;10.30;99.90
19862;DHT22;10093;48.148;8.542;2022-12-29T13:00:24;10.60;99.90
19862;DHT22;10093;48.148;8.542;2022-12-29T13:03:41;10.50;99.90
19862;DHT22;10093;48.148;8.542;2022-12-29T13:06:13;10.50;99.90
19862;DHT22;10093;48.148;8.542;2022-12-29T13:14:24;10.40;99.90
19862;DHT22;10093;48.148;8.542;2022-12-29T13:17:07;10.50;99.90
19862;DHT22;10093;48.148;8.542;2022-12-29T13:19:55;10.60;99.90
19862;DHT22;10093;48.148;8.542;2022-12-29T13:28:10;11.00;99.90
19862;DHT22;10093;48.148;8.542;2022-12-29T13:36:19;11.00;99.90
19862;DHT22;10093;48.148;8.542;2022-12-29T13:38:51;11.00;99.90
19862;DHT22;10093;48.148;8.542;2022-12-29T13:41:32;11.10;99.90
19862;DHT22;10093;48.148;8.542;2022-12-29T13:44:01;11.00;99.90
19862;DHT22;10093;48.148;8.542;2022-12-29T13:46:41;11.10;99.90
19862;DHT22;10093;48.148;8.542;2022-12-29T13:49:18;11.20;99.90
19862;DHT22;10093;48.148;8.542;2022-12-29T13:52:08;11.10;99.90
19862;DHT22;10093;48.148;8.542;2022-12-29T13:54:42;11.10;99.90
19862;DHT22;10093;48.148;8.542;2022-12-29T13:57:12;10.90;99.90
19862;DHT22;10093;48.148;8.542;2022-12-29T14:00:02;10.90;99.90
19862;DHT22;10093;48.148;8.542;2022-12-29T14:07:49;10.80;99.90
19862;DHT22;10093;48.148;8.542;2022-12-29T14:10:48;10.80;99.90
19862;DHT22;10093;48.148;8.542;2022-12-29T14:13:16;10.80;99.90
19862;DHT22;10093;48.148;8.542;2022-12-29T14:15:49;10.80;99.90
19862;DHT22;10093;48.148;8.542;2022-12-29T14:18:21;10.70;99.90
19862;DHT22;10093;48.148;8.542;2022-12-29T14:23:38;10.70;99.90
19862;DHT22;10093;48.148;8.542;2022-12-29T14:28:38;10.60;99.90
19862;DHT22;10093;48.148;8.542;2022-12-29T14:33:39;10.40;99.90
19862;DHT22;10093;48.148;8.542;2022-12-29T14:36:33;10.40;99.90
19862;DHT22;10093;48.148;8.542;2022-12-29T14:39:00;10.40;99.90
19862;DHT22;10093;48.148;8.542;2022-12-29T14:41:39;10.30;99.90
19862;DHT22;10093;48.148;8.542;2022-12-29T14:49:23;10.20;99.90
19862;DHT22;10093;48.148;8.542;2022-12-29T14:51:52;10.30;99.90
19862;DHT22;10093;48.148;8.542;2022-12-29T14:54:46;10.30;99.90
19862;DHT22;10093;48.148;8.542;2022-12-29T14:57:40;10.10;99.90
19862;DHT22;10093;48.148;8.542;2022-12-29T15:02:46;9.70;99.90
19862;DHT22;10093;48.148;8.542;2022-12-29T15:05:40;9.70;99.90
19862;DHT22;10093;48.148;8.542;2022-12-29T15:08:08;9.60;99.90
19862;DHT22;10093;48.148;8.542;2022-12-29T15:11:09;9.60;99.90
19862;DHT22;10093;48.148;8.542;2022-12-29T15:13:39;9.50;99.90
19862;DHT22;10093;48.148;8.542;2022-12-29T15:16:31;9.40;99.90
19862;DHT22;10093;48.148;8.542;2022-12-29T15:18:57;9.40;99.90
19862;DHT22;10093;48.148;8.542;2022-12-29T15:21:29;9.30;99.90
19862;DHT22;10093;48.148;8.542;2022-12-29T15:23:55;9.30;99.90
19862;DHT22;10093;48.148;8.542;2022-12-29T15:26:21;9.30;99.90
19862;DHT22;10093;48.148;8.542;2022-12-29T15:28:50;9.30;99.90
19862;DHT22;10093;48.148;8.542;2022-12-29T15:31:18;9.20;99.90
19862;DHT22;10093;48.148;8.542;2022-12-29T15:33:50;9.30;99.90
19862;DHT22;10093;48.148;8.542;2022-12-29T15:36:25;9.30;99.90
19862;DHT22;10093;48.148;8.542;2022-12-29T15:38:52;9.40;99.90
19862;DHT22;10093;48.148;8.542;2022-12-29T15:46:54;9.30;99.90
19862;DHT22;10093;48.148;8.542;2022-12-29T15:49:20;9.30;99.90
19862;DHT22;10093;48.148;8.542;2022-12-29T15:51:46;9.30;99.90
19862;DHT22;10093;48.148;8.542;2022-12-29T15:54:20;9.30;99.90
19862;DHT22;10093;48.148;8.542;2022-12-29T15:56:47;9.40;99.90
19862;DHT22;10093;48.148;8.542;2022-12-29T15:59:33;9.30;99.90
19862;DHT22;10093;48.148;8.542;2022-12-29T16:02:01;9.20;99.90
19862;DHT22;10093;48.148;8.542;2022-12-29T16:04:30;9.20;99.90
19862;DHT22;10093;48.148;8.542;2022-12-29T16:07:19;9.20;99.90
19862;DHT22;10093;48.148;8.542;2022-12-29T16:09:47;9.10;99.90
19862;DHT22;10093;48.148;8.542;2022-12-29T16:12:26;9.00;99.90
19862;DHT22;10093;48.148;8.542;2022-12-29T16:14:58;9.00;99.90
19862;DHT22;10093;48.148;8.542;2022-12-29T16:17:29;9.00;99.90
19862;DHT22;10093;48.148;8.542;2022-12-29T16:20:22;9.10;99.90
19862;DHT22;10093;48.148;8.542;2022-12-29T16:22:53;9.30;99.90
19862;DHT22;10093;48.148;8.542;2022-12-29T16:25:23;9.40;99.90
19862;DHT22;10093;48.148;8.542;2022-12-29T16:27:50;9.50;99.90
19862;DHT22;10093;48.148;8.542;2022-12-29T16:30:18;9.50;99.90
19862;DHT22;10093;48.148;8.542;2022-12-29T16:32:46;9.50;99.90
19862;DHT22;10093;48.148;8.542;2022-12-29T16:35:18;9.40;99.90
19862;DHT22;10093;48.148;8.542;2022-12-29T16:37:44;9.40;99.90
19862;DHT22;10093;48.148;8.542;2022-12-29T16:40:24;9.30;99.90
19862;DHT22;10093;48.148;8.542;2022-12-29T16:42:55;9.20;99.90
19862;DHT22;10093;48.148;8.542;2022-12-29T16:50:18;9.10;99.90
19862;DHT22;10093;48.148;8.542;2022-12-29T16:52:49;9.00;99.90
19862;DHT22;10093;48.148;8.542;2022-12-29T16:55:19;9.00;99.90
19862;DHT22;10093;48.148;8.542;2022-12-29T16:57:46;9.00;99.90
19862;DHT22;10093;48.148;8.542;2022-12-29T17:00:22;9.00;99.90
19862;DHT22;10093;48.148;8.542;2022-12-29T17:02:54;9.00;99.90
19862;DHT22;10093;48.148;8.542;2022-12-29T17:05:21;8.90;99.90
19862;DHT22;10093;48.148;8.542;2022-12-29T17:07:48;8.90;99.90
19862;DHT22;10093;48.148;8.542;2022-12-29T17:10:14;8.90;99.90
19862;DHT22;10093;48.148;8.542;2022-12-29T17:12:42;8.90;99.90
19862;DHT22;10093;48.148;8.542;2022-12-29T17:17:38;8.80;99.90
19862;DHT22;10093;48.148;8.542;2022-12-29T17:22:41;8.90;99.90
19862;DHT22;10093;48.148;8.542;2022-12-29T17:25:11;8.90;99.90
19862;DHT22;10093;48.148;8.542;2022-12-29T17:30:16;9.00;99.90
19862;DHT22;10093;48.148;8.542;2022-12-29T17:32:45;9.00;99.90
19862;DHT22;10093;48.148;8.542;2022-12-29T17:35:14;9.00;99.90
19862;DHT22;10093;48.148;8.542;2022-12-29T17:37:41;9.00;99.90
19862;DHT22;10093;48.148;8.542;2022-12-29T17:40:11;9.00;99.90
19862;DHT22;10093;48.148;8.542;2022-12-29T17:42:42;8.90;99.90
19862;DHT22;10093;48.148;8.542;2022-12-29T17:45:13;8.80;99.90
19862;DHT22;10093;48.148;8.542;2022-12-29T17:47:40;8.70;99.90
19862;DHT22;10093;48.148;8.542;2022-12-29T17:50:13;8.50;99.90
19862;DHT22;10093;48.148;8.542;2022-12-29T17:52:43;8.40;99.90
19862;DHT22;10093;48.148;8.542;2022-12-29T17:55:15;8.40;99.90
19862;DHT22;10093;48.148;8.542;2022-12-29T17:57:41;8.30;99.90
19862;DHT22;10093;48.148;8.542;2022-12-29T18:00:20;8.30;99.90
19862;DHT22;10093;48.148;8.542;2022-12-29T18:02:47;8.20;99.90
19862;DHT22;10093;48.148;8.542;2022-12-29T18:05:31;8.10;99.90
19862;DHT22;10093;48.148;8.542;2022-12-29T18:07:57;8.10;99.90
19862;DHT22;10093;48.148;8.542;2022-12-29T18:10:25;8.20;99.90
19862;DHT22;10093;48.148;8.542;2022-12-29T18:12:54;8.20;99.90
19862;DHT22;10093;48.148;8.542;2022-12-29T18:15:23;8.20;99.90
19862;DHT22;10093;48.148;8.542;2022-12-29T18:20:28;8.20;99.90
19862;DHT22;10093;48.148;8.542;2022-12-29T18:22:55;8.20;99.90
19862;DHT22;10093;48.148;8.542;2022-12-29T18:25:29;8.20;99.90
19862;DHT22;10093;48.148;8.542;2022-12-29T18:27:58;8.20;99.90
19862;DHT22;10093;48.148;8.542;2022-12-29T18:30:23;8.30;99.90
19862;DHT22;10093;48.148;8.542;2022-12-29T18:32:49;8.30;99.90
19862;DHT22;10093;48.148;8.542;2022-12-29T18:35:40;8.30;99.90
19862;DHT22;10093;48.148;8.542;2022-12-29T18:38:07;8.30;99.90
19862;DHT22;10093;48.148;8.542;2022-12-29T18:40:33;8.20;99.90
19862;DHT22;10093;48.148;8.542;2022-12-29T18:42:59;8.20;99.90
19862;DHT22;10093;48.148;8.542;2022-12-29T18:45:25;8.20;99.90